createdAt,value
2023-05-09T00:02:17.270Z,1.59
2023-05-09T00:04:44.280Z,1.55
2023-05-09T00:07:11.204Z,1.51
2023-05-09T00:09:37.989Z,1.46
2023-05-09T00:12:05.142Z,1.43
2023-05-09T00:14:33.677Z,1.40
2023-05-09T00:17:01.258Z,1.37
2023-05-09T00:19:28.066Z,1.34
2023-05-09T00:21:54.848Z,1.31
2023-05-09T00:24:21.660Z,1.27
2023-05-09T00:26:48.392Z,1.23
2023-05-09T00:29:15.264Z,1.20
2023-05-09T00:31:42.057Z,1.17
2023-05-09T00:34:08.792Z,1.13
2023-05-09T00:36:35.588Z,1.09
2023-05-09T00:39:02.319Z,1.05
2023-05-09T00:41:29.089Z,1.00
2023-05-09T00:43:55.866Z,0.96
2023-05-09T00:46:23.012Z,0.93
2023-05-09T00:48:50.443Z,0.89
2023-05-09T00:51:17.346Z,0.86
2023-05-09T00:53:45.758Z,0.84
2023-05-09T00:56:13.223Z,0.80
2023-05-09T00:58:40.216Z,0.75
2023-05-09T01:01:07.102Z,0.72
2023-05-09T01:03:35.072Z,0.69
2023-05-09T01:06:04.251Z,0.65
2023-05-09T01:08:47.295Z,0.61
2023-05-09T01:11:34.462Z,0.57
2023-05-09T01:14:15.805Z,0.53
2023-05-09T01:16:55.169Z,0.49
2023-05-09T01:19:49.099Z,0.45
2023-05-09T01:22:16.656Z,0.42
2023-05-09T01:24:57.420Z,0.39
2023-05-09T01:27:45.328Z,0.35
2023-05-09T01:30:13.998Z,0.33
2023-05-09T01:32:43.442Z,0.30
2023-05-09T01:35:14.840Z,0.27
2023-05-09T01:37:44.821Z,0.24
2023-05-09T01:40:15.659Z,0.21
2023-05-09T01:42:51.434Z,0.18
2023-05-09T01:45:20.116Z,0.15
2023-05-09T01:47:49.164Z,0.14
2023-05-09T01:50:18.824Z,0.11
2023-05-09T01:52:49.054Z,0.08
2023-05-09T01:55:18.073Z,0.06
2023-05-09T01:57:45.836Z,0.05
2023-05-09T02:00:15.230Z,0.03
2023-05-09T02:02:43.376Z,-0.00
2023-05-09T02:05:12.313Z,-0.02
2023-05-09T02:07:42.185Z,-0.04
2023-05-09T02:10:11.014Z,-0.06
2023-05-09T02:12:39.081Z,-0.08
2023-05-09T02:15:07.467Z,-0.11
2023-05-09T02:17:34.276Z,-0.13
2023-05-09T02:20:01.171Z,-0.15
2023-05-09T02:22:28.418Z,-0.17
2023-05-09T02:24:55.408Z,-0.17
2023-05-09T02:27:22.704Z,-0.18
2023-05-09T02:29:55.948Z,-0.19
2023-05-09T02:32:25.946Z,-0.20
2023-05-09T02:34:54.341Z,-0.21
2023-05-09T02:37:21.956Z,-0.21
2023-05-09T02:39:48.776Z,-0.21
2023-05-09T02:42:22.779Z,-0.21
2023-05-09T02:44:49.555Z,-0.22
2023-05-09T02:47:16.297Z,-0.22
2023-05-09T02:49:43.132Z,-0.21
2023-05-09T02:52:11.235Z,-0.23
2023-05-09T02:54:38.652Z,-0.23
2023-05-09T02:57:05.841Z,-0.24
2023-05-09T02:59:32.992Z,-0.22
2023-05-09T03:01:59.738Z,-0.21
2023-05-09T03:04:27.996Z,-0.21
2023-05-09T03:06:54.884Z,-0.20
2023-05-09T03:09:21.596Z,-0.20
2023-05-09T03:11:48.313Z,-0.19
2023-05-09T03:14:15.596Z,-0.17
2023-05-09T03:16:42.324Z,-0.15
2023-05-09T03:19:09.100Z,-0.13
2023-05-09T03:21:36.045Z,-0.09
2023-05-09T03:24:04.752Z,-0.04
2023-05-09T03:26:31.510Z,0.01
2023-05-09T03:28:58.826Z,0.08
2023-05-09T03:31:25.569Z,0.15
2023-05-09T03:33:52.338Z,0.23
2023-05-09T03:36:19.178Z,0.28
2023-05-09T03:38:45.953Z,0.36
2023-05-09T03:41:16.297Z,0.45
2023-05-09T03:43:43.190Z,0.54
2023-05-09T03:46:09.959Z,0.63
2023-05-09T03:48:36.793Z,0.72
2023-05-09T03:51:03.733Z,0.80
2023-05-09T03:53:30.614Z,0.89
2023-05-09T03:55:57.391Z,0.98
2023-05-09T03:58:24.144Z,1.05
2023-05-09T04:00:50.889Z,1.13
2023-05-09T04:03:17.740Z,1.23
2023-05-09T04:05:44.628Z,1.32
2023-05-09T04:08:11.386Z,1.44
2023-05-09T04:10:38.212Z,1.56
2023-05-09T04:13:05.198Z,1.70
2023-05-09T04:15:32.067Z,1.87
2023-05-09T04:17:58.967Z,2.09
2023-05-09T04:20:26.134Z,2.34
2023-05-09T04:22:52.891Z,2.59
2023-05-09T04:25:20.335Z,2.89
2023-05-09T04:27:47.350Z,3.24
2023-05-09T04:30:14.495Z,3.65
2023-05-09T04:32:45.895Z,4.07
2023-05-09T04:35:14.325Z,4.52
2023-05-09T04:37:42.023Z,4.92
2023-05-09T04:40:09.538Z,5.33
2023-05-09T04:42:37.776Z,5.75
2023-05-09T04:45:05.798Z,6.17
2023-05-09T04:47:32.741Z,6.57
2023-05-09T04:49:59.602Z,6.96
2023-05-09T04:52:26.396Z,7.33
2023-05-09T04:54:53.196Z,7.67
2023-05-09T04:57:19.971Z,8.05
2023-05-09T04:59:46.849Z,8.39
2023-05-09T05:02:13.777Z,8.71
2023-05-09T05:04:41.058Z,9.05
2023-05-09T05:07:07.835Z,9.41
2023-05-09T05:09:34.637Z,9.77
2023-05-09T05:12:03.672Z,10.11
2023-05-09T05:14:31.710Z,10.40
2023-05-09T05:16:59.099Z,10.72
2023-05-09T05:19:26.130Z,10.99
2023-05-09T05:21:52.910Z,11.20
2023-05-09T05:24:19.687Z,11.50
2023-05-09T05:26:46.527Z,11.70
2023-05-09T05:29:13.272Z,11.93
2023-05-09T05:31:40.037Z,12.11
2023-05-09T05:34:06.841Z,12.31
2023-05-09T05:36:33.604Z,12.51
2023-05-09T05:39:00.296Z,12.77
2023-05-09T05:41:27.213Z,13.07
2023-05-09T05:43:54.583Z,13.58
2023-05-09T05:46:21.537Z,14.37
2023-05-09T05:48:48.653Z,15.61
2023-05-09T05:51:15.403Z,17.20
2023-05-09T05:53:42.591Z,18.54
2023-05-09T05:56:09.753Z,19.67
2023-05-09T05:58:36.498Z,20.63
2023-05-09T06:01:03.309Z,21.52
2023-05-09T06:03:30.144Z,22.34
2023-05-09T06:05:57.504Z,22.67
2023-05-09T06:08:24.206Z,21.83
2023-05-09T06:10:51.093Z,20.37
2023-05-09T06:13:18.102Z,18.87
2023-05-09T06:15:45.043Z,17.58
2023-05-09T06:18:11.989Z,16.44
2023-05-09T06:20:38.896Z,15.64
2023-05-09T06:23:05.897Z,14.97
2023-05-09T06:25:32.943Z,14.45
2023-05-09T06:27:59.937Z,13.97
2023-05-09T06:30:27.296Z,13.47
2023-05-09T06:32:58.618Z,13.04
2023-05-09T06:35:25.555Z,12.71
2023-05-09T06:37:52.454Z,12.49
2023-05-09T06:40:19.600Z,12.33
2023-05-09T06:42:46.421Z,12.22
2023-05-09T06:45:13.714Z,12.11
2023-05-09T06:47:40.945Z,12.05
2023-05-09T06:50:08.775Z,12.03
2023-05-09T06:52:36.234Z,11.97
2023-05-09T06:55:04.462Z,11.91
2023-05-09T06:57:31.841Z,11.95
2023-05-09T06:59:58.741Z,11.94
2023-05-09T07:02:25.974Z,11.89
2023-05-09T07:04:53.124Z,11.88
2023-05-09T07:07:20.036Z,11.77
2023-05-09T07:09:48.088Z,11.70
2023-05-09T07:12:16.540Z,11.68
2023-05-09T07:14:43.260Z,11.67
2023-05-09T07:17:21.781Z,11.60
2023-05-09T07:19:49.475Z,11.60
2023-05-09T07:22:16.580Z,11.62
2023-05-09T07:24:44.777Z,11.73
2023-05-09T07:27:11.728Z,11.84
2023-05-09T07:29:39.025Z,11.89
2023-05-09T07:32:06.438Z,11.86
2023-05-09T07:34:33.403Z,11.91
2023-05-09T07:37:00.590Z,11.99
2023-05-09T07:39:27.582Z,12.07
2023-05-09T07:41:54.651Z,12.09
2023-05-09T07:44:21.680Z,12.15
2023-05-09T07:46:48.884Z,12.27
2023-05-09T07:49:15.681Z,12.33
2023-05-09T07:51:42.603Z,12.35
2023-05-09T07:54:10.888Z,12.46
2023-05-09T07:56:37.630Z,12.54
2023-05-09T07:59:04.412Z,12.51
2023-05-09T08:01:31.781Z,12.43
2023-05-09T08:03:58.850Z,12.42
2023-05-09T08:06:26.724Z,12.42
2023-05-09T08:08:53.751Z,12.43
2023-05-09T08:11:20.575Z,12.47
2023-05-09T08:13:48.508Z,12.46
2023-05-09T08:16:17.693Z,12.39
2023-05-09T08:18:45.372Z,12.36
2023-05-09T08:21:12.560Z,12.37
2023-05-09T08:23:40.887Z,12.37
2023-05-09T08:26:07.611Z,12.39
2023-05-09T08:28:34.495Z,12.47
2023-05-09T08:31:01.445Z,12.55
2023-05-09T08:33:28.494Z,12.56
2023-05-09T08:35:56.619Z,12.57
2023-05-09T08:38:24.622Z,12.56
2023-05-09T08:40:51.568Z,12.52
2023-05-09T08:43:20.491Z,12.52
2023-05-09T08:45:51.527Z,12.51
2023-05-09T08:48:19.419Z,12.51
2023-05-09T08:50:46.353Z,12.51
2023-05-09T08:53:14.548Z,12.57
2023-05-09T08:55:41.791Z,12.63
2023-05-09T08:58:10.286Z,12.65
2023-05-09T09:00:40.768Z,12.72
2023-05-09T09:03:08.208Z,12.76
2023-05-09T09:05:41.470Z,12.79
2023-05-09T09:08:10.375Z,12.81
2023-05-09T09:10:42.636Z,12.85
2023-05-09T09:13:11.689Z,12.92
2023-05-09T09:15:40.909Z,12.93
2023-05-09T09:18:17.096Z,12.95
2023-05-09T09:20:48.672Z,12.97
2023-05-09T09:23:20.597Z,12.96
2023-05-09T09:25:48.343Z,13.03
2023-05-09T09:28:15.734Z,13.08
2023-05-09T09:30:48.294Z,13.02
2023-05-09T09:33:26.881Z,12.93
2023-05-09T09:35:56.481Z,12.91
2023-05-09T09:38:23.776Z,12.88
2023-05-09T09:40:58.948Z,12.90
2023-05-09T09:43:30.307Z,12.94
2023-05-09T09:46:01.149Z,13.04
2023-05-09T09:48:33.849Z,13.15
2023-05-09T09:51:11.534Z,13.28
2023-05-09T09:53:42.581Z,13.41
2023-05-09T09:56:10.059Z,13.45
2023-05-09T09:58:37.755Z,13.45
2023-05-09T10:01:14.274Z,13.46
2023-05-09T10:03:46.849Z,13.61
2023-05-09T10:06:16.957Z,13.78
2023-05-09T10:08:49.115Z,13.93
2023-05-09T10:11:16.522Z,14.08
2023-05-09T10:13:44.924Z,14.18
2023-05-09T10:16:12.577Z,14.22
2023-05-09T10:18:42.932Z,14.17
2023-05-09T10:21:15.320Z,14.07
2023-05-09T10:23:47.132Z,14.06
2023-05-09T10:26:23.217Z,14.13
2023-05-09T10:28:54.571Z,14.12
2023-05-09T10:31:29.910Z,14.10
2023-05-09T10:33:57.402Z,14.08
2023-05-09T10:36:25.059Z,14.04
2023-05-09T10:38:55.036Z,14.00
2023-05-09T10:41:22.744Z,13.99
2023-05-09T10:43:49.834Z,13.98
2023-05-09T10:46:18.075Z,13.99
2023-05-09T10:48:45.626Z,14.04
2023-05-09T10:51:13.370Z,14.09
2023-05-09T10:53:48.028Z,14.05
2023-05-09T10:56:40.006Z,14.06
2023-05-09T10:59:06.930Z,14.05
2023-05-09T11:01:39.809Z,14.05
2023-05-09T11:04:12.961Z,14.08
2023-05-09T11:06:47.667Z,14.15
2023-05-09T11:09:35.892Z,14.18
2023-05-09T11:12:05.503Z,14.24
2023-05-09T11:14:33.365Z,14.34
2023-05-09T11:17:01.132Z,14.42
2023-05-09T11:19:38.382Z,14.50
2023-05-09T11:22:14.128Z,14.57
2023-05-09T11:24:44.568Z,14.65
2023-05-09T11:27:25.172Z,14.75
2023-05-09T11:29:59.214Z,14.88
2023-05-09T11:32:32.266Z,14.97
2023-05-09T11:35:09.879Z,15.08
2023-05-09T11:37:50.794Z,15.15
2023-05-09T11:40:19.202Z,15.21
2023-05-09T11:42:47.239Z,15.18
2023-05-09T11:45:14.753Z,15.12
2023-05-09T11:47:41.882Z,15.09
2023-05-09T11:50:10.165Z,15.03
2023-05-09T11:52:38.307Z,14.99
2023-05-09T11:55:12.798Z,14.91
2023-05-09T11:57:41.051Z,14.86
2023-05-09T12:00:09.651Z,14.94
2023-05-09T12:02:39.714Z,15.05
2023-05-09T12:05:13.625Z,15.17
2023-05-09T12:07:41.563Z,15.23
2023-05-09T12:10:09.048Z,15.21
2023-05-09T12:12:43.347Z,15.17
2023-05-09T12:15:10.419Z,15.15
2023-05-09T12:17:37.224Z,15.06
2023-05-09T12:20:06.196Z,14.94
2023-05-09T12:22:33.538Z,14.83
2023-05-09T12:25:02.366Z,14.81
2023-05-09T12:27:29.400Z,14.81
2023-05-09T12:29:56.149Z,14.90
2023-05-09T12:32:23.161Z,15.04
2023-05-09T12:34:51.729Z,15.05
2023-05-09T12:37:19.249Z,15.04
2023-05-09T12:40:06.479Z,15.05
2023-05-09T12:42:33.883Z,15.01
2023-05-09T12:45:01.959Z,14.97
2023-05-09T12:47:29.846Z,14.94
2023-05-09T12:49:59.972Z,14.96
2023-05-09T12:52:33.649Z,14.94
2023-05-09T12:55:05.827Z,14.91
2023-05-09T12:57:32.620Z,14.88
2023-05-09T13:00:00.491Z,14.91
2023-05-09T13:02:30.781Z,14.98
2023-05-09T13:05:17.741Z,15.11
2023-05-09T13:07:45.876Z,15.26
2023-05-09T13:10:38.972Z,15.31
2023-05-09T13:13:05.739Z,15.35
2023-05-09T13:15:33.954Z,15.33
2023-05-09T13:18:00.773Z,15.25
2023-05-09T13:20:28.088Z,15.17
2023-05-09T13:22:55.038Z,15.17
2023-05-09T13:25:21.897Z,15.27
2023-05-09T13:27:48.566Z,15.42
2023-05-09T13:30:15.817Z,15.53
2023-05-09T13:32:42.719Z,15.60
2023-05-09T13:35:09.651Z,15.64
2023-05-09T13:37:36.323Z,15.61
2023-05-09T13:40:03.860Z,15.62
2023-05-09T13:42:31.328Z,15.65
2023-05-09T13:44:58.275Z,15.73
2023-05-09T13:47:24.997Z,15.84
2023-05-09T13:49:52.660Z,15.87
2023-05-09T13:52:19.610Z,15.82
2023-05-09T13:54:46.597Z,15.70
2023-05-09T13:57:13.499Z,15.57
2023-05-09T13:59:43.193Z,15.47
2023-05-09T14:02:11.354Z,15.46
2023-05-09T14:04:39.398Z,15.49
2023-05-09T14:07:06.157Z,15.59
2023-05-09T14:09:40.117Z,15.70
2023-05-09T14:12:07.217Z,15.75
2023-05-09T14:14:34.072Z,15.76
2023-05-09T14:17:01.519Z,15.77
2023-05-09T14:19:29.160Z,15.73
2023-05-09T14:21:56.017Z,15.71
2023-05-09T14:24:23.224Z,15.72
2023-05-09T14:26:49.956Z,15.76
2023-05-09T14:29:17.227Z,15.82
2023-05-09T14:31:44.511Z,15.83
2023-05-09T14:34:11.645Z,15.84
2023-05-09T14:36:38.236Z,15.87
2023-05-09T14:39:06.435Z,15.97
2023-05-09T14:41:33.339Z,16.05
2023-05-09T14:43:59.967Z,16.12
2023-05-09T14:46:26.609Z,16.17
2023-05-09T14:48:53.403Z,16.21
2023-05-09T14:51:20.245Z,16.21
2023-05-09T14:53:47.624Z,16.16
2023-05-09T14:56:14.384Z,16.08
2023-05-09T14:58:41.203Z,16.03
2023-05-09T15:01:08.016Z,15.97
2023-05-09T15:03:34.814Z,15.97
2023-05-09T15:06:01.672Z,16.01
2023-05-09T15:08:28.430Z,16.02
2023-05-09T15:10:55.494Z,15.97
2023-05-09T15:13:22.280Z,15.87
2023-05-09T15:15:49.032Z,15.73
2023-05-09T15:18:17.210Z,15.59
2023-05-09T15:20:44.121Z,15.44
2023-05-09T15:23:11.429Z,15.30
2023-05-09T15:25:38.586Z,15.20
2023-05-09T15:28:05.463Z,15.10
2023-05-09T15:30:32.167Z,15.04
2023-05-09T15:32:59.918Z,14.97
2023-05-09T15:35:27.021Z,14.89
2023-05-09T15:37:53.630Z,14.88
2023-05-09T15:40:20.252Z,14.88
2023-05-09T15:42:48.420Z,14.88
2023-05-09T15:45:15.812Z,14.86
2023-05-09T15:47:42.742Z,14.84
2023-05-09T15:50:10.118Z,14.79
2023-05-09T15:52:36.870Z,14.75
2023-05-09T15:55:03.661Z,14.71
2023-05-09T15:57:30.392Z,14.69
2023-05-09T15:59:57.041Z,14.68
2023-05-09T16:02:24.248Z,14.68
2023-05-09T16:04:51.049Z,14.65
2023-05-09T16:07:19.645Z,14.64
2023-05-09T16:09:46.452Z,14.61
2023-05-09T16:12:13.891Z,14.58
2023-05-09T16:14:40.590Z,14.53
2023-05-09T16:17:07.272Z,14.48
2023-05-09T16:22:15.110Z,14.37
2023-05-09T16:24:41.726Z,14.33
2023-05-09T16:27:08.418Z,14.30
2023-05-09T16:29:35.188Z,14.27
2023-05-09T16:32:02.021Z,14.23
2023-05-09T16:34:29.399Z,14.18
2023-05-09T16:36:56.198Z,14.13
2023-05-09T16:39:23.887Z,14.08
2023-05-09T16:41:50.452Z,14.04
2023-05-09T16:44:17.491Z,14.01
2023-05-09T16:46:44.075Z,13.98
2023-05-09T16:49:11.326Z,13.95
2023-05-09T16:51:38.154Z,13.91
2023-05-09T16:54:04.785Z,13.85
2023-05-09T16:56:31.378Z,13.81
2023-05-09T16:58:58.360Z,13.76
2023-05-09T17:01:24.950Z,13.70
2023-05-09T17:03:51.626Z,13.66
2023-05-09T17:06:18.746Z,13.61
2023-05-09T17:08:45.720Z,13.56
2023-05-09T17:11:12.483Z,13.51
2023-05-09T17:13:39.107Z,13.47
2023-05-09T17:16:05.813Z,13.41
2023-05-09T17:18:37.573Z,13.36
2023-05-09T17:21:05.050Z,13.30
2023-05-09T17:23:31.995Z,13.23
2023-05-09T17:25:58.657Z,13.18
2023-05-09T17:28:25.444Z,13.13
2023-05-09T17:30:52.071Z,13.07
2023-05-09T17:33:19.392Z,13.01
2023-05-09T17:35:49.801Z,12.96
2023-05-09T17:38:16.883Z,12.90
2023-05-09T17:40:43.782Z,12.84
2023-05-09T17:43:10.743Z,12.78
2023-05-09T17:45:37.417Z,12.73
2023-05-09T17:48:04.058Z,12.66
2023-05-09T17:50:31.730Z,12.60
2023-05-09T17:52:58.746Z,12.53
2023-05-09T17:55:25.348Z,12.47
2023-05-09T18:00:32.782Z,12.33
2023-05-09T18:03:00.744Z,12.26
2023-05-09T18:05:27.794Z,12.20
2023-05-09T18:07:54.511Z,12.13
2023-05-09T18:10:21.673Z,12.06
2023-05-09T18:12:48.433Z,11.98
2023-05-09T18:15:15.194Z,11.90
2023-05-09T18:17:41.832Z,11.82
2023-05-09T18:20:08.808Z,11.75
2023-05-09T18:22:37.367Z,11.67
2023-05-09T18:25:04.128Z,11.60
2023-05-09T18:27:30.847Z,11.53
2023-05-09T18:29:57.439Z,11.46
2023-05-09T18:32:24.139Z,11.40
2023-05-09T18:34:50.839Z,11.32
2023-05-09T18:37:17.928Z,11.24
2023-05-09T18:39:44.983Z,11.17
2023-05-09T18:42:13.921Z,11.09
2023-05-09T18:44:42.054Z,10.99
2023-05-09T18:47:09.240Z,10.89
2023-05-09T18:49:36.295Z,10.80
2023-05-09T18:52:03.565Z,10.68
2023-05-09T18:54:30.178Z,10.57
2023-05-09T18:56:56.785Z,10.47
2023-05-09T18:59:24.277Z,10.40
2023-05-09T19:01:51.222Z,10.32
2023-05-09T19:04:19.645Z,10.23
2023-05-09T19:06:46.989Z,10.14
2023-05-09T19:09:13.636Z,10.06
2023-05-09T19:11:40.316Z,9.94
2023-05-09T19:14:07.462Z,9.84
2023-05-09T19:16:34.236Z,9.73
2023-05-09T19:19:00.917Z,9.62
2023-05-09T19:21:28.364Z,9.53
2023-05-09T19:23:55.068Z,9.43
2023-05-09T19:26:22.154Z,9.33
2023-05-09T19:28:48.813Z,9.24
2023-05-09T19:31:15.767Z,9.16
2023-05-09T19:33:45.771Z,9.09
2023-05-09T19:36:13.036Z,9.01
2023-05-09T19:38:39.833Z,8.93
2023-05-09T19:41:06.534Z,8.84
2023-05-09T19:43:33.106Z,8.75
2023-05-09T19:46:00.130Z,8.66
2023-05-09T19:48:26.903Z,8.59
2023-05-09T19:50:56.614Z,8.53
2023-05-09T19:53:23.344Z,8.49
2023-05-09T19:55:49.984Z,8.47
2023-05-09T19:58:17.724Z,8.46
2023-05-09T20:00:45.330Z,8.44
2023-05-09T20:03:12.165Z,8.45
2023-05-09T20:08:18.262Z,8.44
2023-05-09T20:10:44.783Z,8.43
2023-05-09T20:13:11.462Z,8.40
2023-05-09T20:15:38.019Z,8.37
2023-05-09T20:18:07.204Z,8.34
2023-05-09T20:20:34.295Z,8.30
2023-05-09T20:23:00.887Z,8.25
2023-05-09T20:25:27.541Z,8.18
2023-05-09T20:30:34.567Z,8.05
2023-05-09T20:33:01.287Z,7.99
2023-05-09T20:35:27.994Z,7.92
2023-05-09T20:37:55.001Z,7.85
2023-05-09T20:40:21.551Z,7.78
2023-05-09T20:45:28.698Z,7.59
2023-05-09T20:47:55.425Z,7.50
2023-05-09T20:50:21.965Z,7.41
2023-05-09T20:55:39.099Z,7.25
2023-05-09T20:58:05.668Z,7.18
2023-05-09T21:00:33.017Z,7.10
2023-05-09T21:02:59.719Z,7.03
2023-05-09T21:05:26.343Z,6.94
2023-05-09T21:07:53.232Z,6.84
2023-05-09T21:10:19.838Z,6.75
2023-05-09T21:12:46.384Z,6.66
2023-05-09T21:15:13.906Z,6.57
2023-05-09T21:17:40.591Z,6.48
2023-05-09T21:20:07.728Z,6.41
2023-05-09T21:22:34.271Z,6.35
2023-05-09T21:25:00.988Z,6.28
2023-05-09T21:27:29.794Z,6.22
2023-05-09T21:29:56.289Z,6.14
2023-05-09T21:32:23.242Z,6.06
2023-05-09T21:34:49.897Z,6.00
2023-05-09T21:37:16.503Z,5.95
2023-05-09T21:39:43.087Z,5.90
2023-05-09T21:42:09.629Z,5.86
2023-05-09T21:44:36.255Z,5.82
2023-05-09T21:47:02.902Z,5.76
2023-05-09T21:49:29.646Z,5.70
2023-05-09T21:51:56.278Z,5.64
2023-05-09T21:54:23.370Z,5.57
2023-05-09T21:56:50.048Z,5.50
2023-05-09T21:59:17.882Z,5.44
2023-05-09T22:01:46.047Z,5.39
2023-05-09T22:04:12.738Z,5.35
2023-05-09T22:06:41.684Z,5.32
2023-05-09T22:09:09.079Z,5.30
2023-05-09T22:14:17.542Z,5.30
2023-05-09T22:16:44.316Z,5.33
2023-05-09T22:19:10.897Z,5.36
2023-05-09T22:21:38.097Z,5.38
2023-05-09T22:24:04.816Z,5.37
2023-05-09T22:26:31.392Z,5.37
2023-05-09T22:28:57.956Z,5.36
2023-05-09T22:31:24.549Z,5.35
2023-05-09T22:33:52.174Z,5.34
2023-05-09T22:36:18.870Z,5.32
2023-05-09T22:38:45.545Z,5.29
2023-05-09T22:41:12.131Z,5.26
2023-05-09T22:43:39.848Z,5.22
2023-05-09T22:46:06.827Z,5.19
2023-05-09T22:48:33.861Z,5.19
2023-05-09T22:51:00.773Z,5.19
2023-05-09T22:53:28.224Z,5.19
2023-05-09T22:55:54.960Z,5.20
2023-05-09T22:58:22.738Z,5.19
2023-05-09T23:00:49.568Z,5.13
2023-05-09T23:03:16.583Z,5.06
2023-05-09T23:05:43.924Z,5.00
2023-05-09T23:08:10.602Z,4.94
2023-05-09T23:10:37.188Z,4.86
2023-05-09T23:13:04.992Z,4.79
2023-05-09T23:15:31.638Z,4.71
2023-05-09T23:17:58.474Z,4.61
2023-05-09T23:20:25.793Z,4.54
2023-05-09T23:22:52.444Z,4.47
2023-05-09T23:25:19.172Z,4.40
2023-05-09T23:27:47.121Z,4.33
2023-05-09T23:30:13.867Z,4.26
2023-05-09T23:32:40.634Z,4.19
2023-05-09T23:35:07.509Z,4.13
2023-05-09T23:37:34.265Z,4.09
2023-05-09T23:40:01.056Z,4.04
2023-05-09T23:42:27.711Z,4.01
2023-05-09T23:44:54.405Z,3.98
2023-05-09T23:47:21.056Z,3.93
2023-05-09T23:49:47.874Z,3.89
2023-05-09T23:52:14.924Z,3.86
2023-05-09T23:54:41.648Z,3.83
2023-05-09T23:57:08.826Z,3.79
2023-05-09T23:59:35.425Z,3.75
